Time;durP1;ratioP1;P1;durP2;ratioP2;P2;SDS_P1;SDS_P2;PMS_P1;PMS_P2;Temp;Humidity;BMP_temperature;BMP_pressure;BME280_temperature;BME280_humidity;BME280_pressure;Samples;Min_cycle;Max_cycle;Signal;HPM_P1;HPM_P2
2024/01/24 00:00:21;;;;;;;3.63;1.08;;;27.70;99.90;;;;;;5086478;28;20214;-95
2024/01/24 00:03:05;;;;;;;2.70;0.90;;;27.70;99.90;;;;;;4993660;28;20285;-95
2024/01/24 00:05:43;;;;;;;3.88;1.05;;;27.80;99.90;;;;;;4996275;28;20264;-96
2024/01/24 00:08:15;;;;;;;3.67;1.08;;;27.80;99.90;;;;;;4992981;28;20652;-95
2024/01/24 00:10:46;;;;;;;5.85;0.98;;;27.80;99.90;;;;;;4997602;28;20225;-95
2024/01/24 00:13:20;;;;;;;6.70;1.30;;;27.90;99.90;;;;;;4992224;28;20210;-96
2024/01/24 00:15:53;;;;;;;4.25;1.40;;;28.00;99.90;;;;;;4993141;28;20207;-95
2024/01/24 00:18:25;;;;;;;6.53;1.67;;;28.00;99.90;;;;;;4992747;28;20234;-95
2024/01/24 00:20:57;;;;;;;6.05;1.70;;;28.00;99.90;;;;;;4992909;28;20207;-94
2024/01/24 00:23:42;;;;;;;6.70;1.35;;;28.00;99.90;;;;;;4992472;28;20365;-95
2024/01/24 00:26:13;;;;;;;5.72;1.45;;;28.00;99.90;;;;;;4993834;28;20205;-94
2024/01/24 00:28:44;;;;;;;5.90;1.70;;;27.90;99.90;;;;;;4992802;28;20287;-95
2024/01/24 00:31:20;;;;;;;5.70;1.30;;;27.80;99.90;;;;;;4995348;28;20207;-94
2024/01/24 00:33:52;;;;;;;8.98;2.00;;;27.80;99.90;;;;;;4993446;28;20213;-96
2024/01/24 00:36:23;;;;;;;5.05;1.70;;;27.80;99.90;;;;;;4994666;28;20214;-96
2024/01/24 00:38:59;;;;;;;4.95;1.48;;;27.90;99.90;;;;;;5013430;28;20206;-96
2024/01/24 00:41:31;;;;;;;8.80;1.73;;;27.80;99.90;;;;;;5013987;28;20218;-96
2024/01/24 00:44:03;;;;;;;6.05;1.70;;;27.70;99.90;;;;;;5025848;28;20206;-95
2024/01/24 00:46:38;;;;;;;6.38;1.58;;;27.80;99.90;;;;;;5014770;28;20230;-96
2024/01/24 00:49:13;;;;;;;5.90;1.50;;;27.70;99.90;;;;;;5053143;28;20197;-96
2024/01/24 00:52:09;;;;;;;8.27;1.70;;;27.70;99.90;;;;;;5076525;28;20201;-96
2024/01/24 00:54:43;;;;;;;8.18;1.90;;;27.70;99.90;;;;;;5011983;28;20212;-95
2024/01/24 00:57:14;;;;;;;12.15;1.65;;;27.70;99.90;;;;;;5012198;28;20222;-96
2024/01/24 00:59:54;;;;;;;7.50;1.83;;;27.70;99.90;;;;;;5012949;28;20605;-96
2024/01/24 01:02:28;;;;;;;3.67;1.25;;;27.70;99.90;;;;;;5024083;28;20213;-96
2024/01/24 01:05:04;;;;;;;5.30;1.25;;;27.70;99.90;;;;;;5015604;28;20288;-95
2024/01/24 01:07:56;;;;;;;5.40;1.42;;;27.70;99.90;;;;;;5013460;28;20210;-96
2024/01/24 01:13:14;;;;;;;7.07;1.80;;;28.00;99.90;;;;;;4991113;28;20210;-95
2024/01/24 01:15:49;;;;;;;6.65;1.67;;;28.00;99.90;;;;;;4993808;28;20209;-95
2024/01/24 01:18:21;;;;;;;4.97;1.55;;;27.90;99.90;;;;;;4992845;28;20222;-96
2024/01/24 01:20:52;;;;;;;6.20;1.48;;;28.00;99.90;;;;;;4995860;28;20207;-96
2024/01/24 01:23:27;;;;;;;6.05;1.70;;;28.10;99.90;;;;;;4996327;28;20195;-96
2024/01/24 01:26:08;;;;;;;7.97;1.50;;;28.10;99.90;;;;;;5004958;28;20203;-96
2024/01/24 01:28:40;;;;;;;4.35;1.30;;;28.10;99.90;;;;;;5012218;28;20207;-96
2024/01/24 01:31:11;;;;;;;5.93;1.40;;;28.20;99.90;;;;;;5007284;28;20198;-96
2024/01/24 01:33:42;;;;;;;7.07;1.50;;;28.30;99.90;;;;;;5009696;28;20210;-96
2024/01/24 01:36:14;;;;;;;7.63;1.73;;;28.20;99.90;;;;;;5005611;28;20581;-96
2024/01/24 01:38:49;;;;;;;5.30;1.50;;;28.10;99.90;;;;;;4997955;28;20214;-96
2024/01/24 01:44:45;;;;;;;6.05;1.60;;;28.30;99.90;;;;;;5001235;28;20323;-96
2024/01/24 01:47:17;;;;;;;7.82;1.70;;;28.30;99.90;;;;;;4998333;28;20280;-96
2024/01/24 01:49:49;;;;;;;8.95;1.70;;;28.30;99.90;;;;;;5078956;28;20222;-96
2024/01/24 01:52:21;;;;;;;9.00;1.73;;;28.40;99.90;;;;;;5120019;28;20239;-96
2024/01/24 01:54:53;;;;;;;4.97;1.50;;;28.40;99.90;;;;;;5120807;28;20210;-95
2024/01/24 01:57:25;;;;;;;5.28;1.40;;;28.50;99.90;;;;;;5122667;28;20202;-95
2024/01/24 01:59:59;;;;;;;5.65;1.60;;;28.50;99.90;;;;;;5070875;28;20305;-96
2024/01/24 02:02:30;;;;;;;6.72;1.50;;;28.60;99.90;;;;;;5016634;28;20190;-96
2024/01/24 02:05:02;;;;;;;6.38;1.60;;;28.80;99.90;;;;;;5015924;28;20198;-96
2024/01/24 02:07:34;;;;;;;6.75;1.90;;;28.90;99.90;;;;;;4996032;28;20223;-96
2024/01/24 02:10:06;;;;;;;4.93;1.45;;;29.00;99.90;;;;;;4995422;28;20249;-96
2024/01/24 02:12:37;;;;;;;4.28;1.45;;;29.20;99.90;;;;;;4996779;28;20222;-95
2024/01/24 02:15:13;;;;;;;7.28;1.70;;;29.40;99.90;;;;;;4995175;28;20268;-96
2024/01/24 02:17:46;;;;;;;7.68;1.77;;;29.60;99.90;;;;;;4996329;28;20238;-95
2024/01/24 02:20:18;;;;;;;5.68;1.80;;;29.50;99.90;;;;;;5008614;28;20203;-96
2024/01/24 02:22:51;;;;;;;6.60;1.50;;;29.50;99.90;;;;;;5003079;28;20278;-96
2024/01/24 02:25:29;;;;;;;5.35;1.60;;;29.50;99.90;;;;;;5017571;27;20687;-95
2024/01/24 02:28:26;;;;;;;5.35;1.30;;;29.30;99.90;;;;;;5016789;28;20222;-96
2024/01/24 02:30:57;;;;;;;4.95;1.58;;;29.10;99.90;;;;;;5012286;28;20233;-96
2024/01/24 02:33:31;;;;;;;4.93;1.60;;;29.00;99.90;;;;;;4999274;28;20243;-95
2024/01/24 02:36:02;;;;;;;5.63;1.50;;;28.90;99.90;;;;;;5014388;28;20221;-96
2024/01/24 02:41:23;;;;;;;7.70;1.70;;;28.80;99.90;;;;;;5011315;28;20696;-96
2024/01/24 02:44:06;;;;;;;5.60;1.70;;;28.80;99.90;;;;;;4996355;28;20278;-95
2024/01/24 02:46:37;;;;;;;7.63;1.88;;;28.90;99.90;;;;;;4994289;28;20460;-95
2024/01/24 02:49:08;;;;;;;7.30;1.95;;;28.80;99.90;;;;;;4993862;28;20234;-96
2024/01/24 02:51:40;;;;;;;5.30;1.48;;;28.80;99.90;;;;;;5009169;28;20250;-95
2024/01/24 02:54:11;;;;;;;5.55;1.70;;;28.80;99.90;;;;;;5013658;28;20621;-95
2024/01/24 02:56:42;;;;;;;4.93;1.63;;;28.80;99.90;;;;;;5014163;28;20202;-96
2024/01/24 02:59:17;;;;;;;5.75;1.67;;;28.80;99.90;;;;;;5014508;28;20213;-96
2024/01/24 03:05:15;;;;;;;6.00;1.45;;;28.90;99.90;;;;;;5012404;28;20251;-96
2024/01/24 03:07:49;;;;;;;5.75;1.35;;;28.90;99.90;;;;;;5006224;28;20591;-95
2024/01/24 03:10:28;;;;;;;4.63;1.35;;;29.10;99.90;;;;;;4994938;28;20615;-96
2024/01/24 03:16:27;;;;;;;4.65;1.23;;;29.20;99.90;;;;;;4906523;29;20285;-96
2024/01/24 03:18:58;;;;;;;2.67;1.20;;;29.40;99.90;;;;;;4955139;28;20654;-96
2024/01/24 03:21:29;;;;;;;4.50;1.42;;;29.40;99.90;;;;;;5016284;28;20205;-95
2024/01/24 03:24:01;;;;;;;7.15;1.70;;;29.60;99.90;;;;;;5014196;28;20183;-95
2024/01/24 03:26:32;;;;;;;3.97;1.50;;;29.60;99.90;;;;;;5019155;28;20213;-96
2024/01/24 03:29:04;;;;;;;3.15;1.35;;;29.70;99.90;;;;;;5003593;28;20222;-95
2024/01/24 03:31:45;;;;;;;4.40;1.20;;;29.70;99.90;;;;;;4994095;28;20222;-96
2024/01/24 03:34:17;;;;;;;6.00;1.30;;;29.60;99.90;;;;;;4995672;28;20286;-96
2024/01/24 03:36:52;;;;;;;4.85;1.50;;;29.60;99.90;;;;;;5016131;28;20249;-95
2024/01/24 03:39:26;;;;;;;4.63;1.42;;;29.50;99.90;;;;;;5020803;28;20281;-95
2024/01/24 03:41:57;;;;;;;4.15;1.23;;;29.50;99.90;;;;;;5004154;28;20206;-96
2024/01/24 03:44:40;;;;;;;4.90;1.35;;;29.40;99.90;;;;;;5006579;28;20251;-95
2024/01/24 03:47:15;;;;;;;3.78;1.30;;;29.30;99.90;;;;;;4992905;28;20674;-96
2024/01/24 03:49:51;;;;;;;6.25;1.50;;;29.30;99.90;;;;;;4995120;28;20708;-95
2024/01/24 03:52:24;;;;;;;5.15;1.45;;;29.10;99.90;;;;;;4993246;28;20281;-96
2024/01/24 03:54:55;;;;;;;5.30;1.50;;;29.10;99.90;;;;;;4993449;28;20601;-96
2024/01/24 03:57:57;;;;;;;5.28;1.70;;;29.20;99.90;;;;;;4993896;28;20209;-96
2024/01/24 04:00:30;;;;;;;3.47;1.20;;;29.40;99.90;;;;;;4994299;28;20213;-96
2024/01/24 04:03:04;;;;;;;5.50;1.70;;;29.50;99.90;;;;;;4994615;28;20644;-96
2024/01/24 04:05:35;;;;;;;2.22;1.30;;;29.40;99.90;;;;;;4994392;28;20211;-96
2024/01/24 04:08:10;;;;;;;3.63;1.60;;;29.30;99.90;;;;;;4995566;28;20287;-95
2024/01/24 04:10:41;;;;;;;4.85;1.70;;;29.20;99.90;;;;;;4999749;28;20213;-96
2024/01/24 04:13:12;;;;;;;4.20;1.60;;;29.10;99.90;;;;;;5014661;28;20197;-96
2024/01/24 04:15:43;;;;;;;3.95;1.23;;;29.10;99.90;;;;;;5021834;28;20186;-96
2024/01/24 04:18:17;;;;;;;3.67;1.23;;;29.10;99.90;;;;;;4995691;28;20199;-96
2024/01/24 04:20:49;;;;;;;4.53;1.65;;;29.10;99.90;;;;;;5000592;28;20290;-96
2024/01/24 04:23:28;;;;;;;5.90;1.55;;;29.20;99.90;;;;;;5007720;28;20214;-96
2024/01/24 04:25:59;;;;;;;6.13;1.60;;;29.10;99.90;;;;;;5003285;28;20186;-96
2024/01/24 04:31:14;;;;;;;4.30;1.45;;;29.20;99.90;;;;;;5016747;28;20230;-95
2024/01/24 04:33:50;;;;;;;3.65;1.35;;;29.40;99.90;;;;;;4998856;28;20210;-94
2024/01/24 04:36:21;;;;;;;7.85;1.92;;;29.60;99.90;;;;;;4996693;28;20210;-95
2024/01/24 04:38:52;;;;;;;5.55;1.50;;;29.80;99.90;;;;;;4997023;28;20222;-96
2024/01/24 04:41:23;;;;;;;6.40;1.60;;;29.80;99.90;;;;;;5002338;28;20222;-96
2024/01/24 04:43:55;;;;;;;9.95;1.90;;;29.80;99.90;;;;;;5009198;28;20292;-96
2024/01/24 04:46:26;;;;;;;9.27;1.88;;;29.60;99.90;;;;;;5008664;28;20237;-92
2024/01/24 04:49:15;;;;;;;3.42;1.20;;;29.40;99.90;;;;;;4999309;28;20254;-95
2024/01/24 04:51:46;;;;;;;6.15;1.58;;;29.30;99.90;;;;;;4993918;28;20279;-95
2024/01/24 04:54:17;;;;;;;5.82;1.77;;;29.20;99.90;;;;;;5001226;28;20621;-96
2024/01/24 04:56:50;;;;;;;5.40;1.52;;;29.10;99.90;;;;;;5014819;28;20205;-94
2024/01/24 04:59:22;;;;;;;7.55;1.90;;;29.10;99.90;;;;;;5016662;28;20251;-94
2024/01/24 05:01:53;;;;;;;9.68;2.40;;;29.10;99.90;;;;;;5006861;28;20198;-95
2024/01/24 05:04:28;;;;;;;7.95;2.35;;;29.00;99.90;;;;;;5009760;28;20225;-94
2024/01/24 05:07:01;;;;;;;7.43;2.20;;;29.00;99.90;;;;;;4996091;28;20198;-95
2024/01/24 05:09:32;;;;;;;6.70;2.20;;;29.00;99.90;;;;;;4998600;28;20234;-93
2024/01/24 05:12:03;;;;;;;6.15;1.75;;;28.90;99.90;;;;;;5015927;28;20232;-96
2024/01/24 05:14:36;;;;;;;6.75;2.22;;;28.80;99.90;;;;;;5003898;28;20289;-95
2024/01/24 05:17:07;;;;;;;9.30;2.90;;;28.60;99.90;;;;;;4996032;28;20210;-96
2024/01/24 05:22:24;;;;;;;4.55;2.15;;;28.40;99.90;;;;;;5011079;28;20614;-94
2024/01/24 05:24:55;;;;;;;6.88;2.35;;;28.30;99.90;;;;;;5004953;28;20213;-95
2024/01/24 05:27:26;;;;;;;9.85;2.40;;;28.30;99.90;;;;;;5014928;28;20206;-94
2024/01/24 05:29:58;;;;;;;7.25;2.42;;;28.20;99.90;;;;;;4999419;28;20206;-95
2024/01/24 05:32:29;;;;;;;8.02;2.33;;;28.20;99.90;;;;;;5019660;28;20194;-95
2024/01/24 05:35:04;;;;;;;6.05;1.90;;;28.30;99.90;;;;;;4998864;28;20249;-96
2024/01/24 05:37:35;;;;;;;6.25;2.05;;;28.20;99.90;;;;;;4995505;28;20208;-96
2024/01/24 05:40:07;;;;;;;5.28;1.60;;;28.30;99.90;;;;;;4995723;28;20252;-95
2024/01/24 05:42:39;;;;;;;7.05;1.90;;;28.20;99.90;;;;;;5005569;28;20226;-95
2024/01/24 05:45:13;;;;;;;8.55;2.35;;;28.20;99.90;;;;;;4998479;28;20289;-96
2024/01/24 05:47:45;;;;;;;5.30;1.80;;;28.30;99.90;;;;;;5009886;28;20230;-94
2024/01/24 05:50:20;;;;;;;6.00;1.60;;;28.30;99.90;;;;;;5021521;28;20217;-95
2024/01/24 05:52:52;;;;;;;7.63;2.20;;;28.30;99.90;;;;;;5016803;27;20213;-94
2024/01/24 05:55:23;;;;;;;7.78;2.17;;;28.30;99.90;;;;;;4999797;28;20724;-94
2024/01/24 05:57:55;;;;;;;8.88;2.10;;;28.30;99.90;;;;;;5013329;28;20598;-94
2024/01/24 06:00:26;;;;;;;7.18;2.28;;;28.20;99.90;;;;;;4994755;28;20202;-94
2024/01/24 06:02:59;;;;;;;7.43;2.03;;;28.20;99.90;;;;;;5003451;28;20211;-95
2024/01/24 06:05:35;;;;;;;9.73;2.13;;;28.30;99.90;;;;;;5000962;28;20289;-93
2024/01/24 06:08:07;;;;;;;8.75;2.15;;;28.30;99.90;;;;;;4995675;28;20229;-94
2024/01/24 06:10:38;;;;;;;7.10;2.20;;;28.30;99.90;;;;;;4995919;28;20293;-95
2024/01/24 06:13:35;;;;;;;8.38;2.25;;;28.40;99.90;;;;;;5009891;28;20189;-95
2024/01/24 06:16:06;;;;;;;6.30;2.13;;;28.40;99.90;;;;;;5001614;28;20210;-94
2024/01/24 06:18:37;;;;;;;10.18;2.00;;;28.40;99.90;;;;;;4996449;28;20203;-95
2024/01/24 06:21:12;;;;;;;10.48;2.40;;;28.50;99.90;;;;;;4995161;28;20256;-95
2024/01/24 06:23:43;;;;;;;7.45;2.00;;;28.40;99.90;;;;;;5015039;28;20221;-96
2024/01/24 06:26:14;;;;;;;10.50;2.30;;;28.50;99.90;;;;;;5022983;28;20289;-96
2024/01/24 06:28:46;;;;;;;6.30;2.00;;;28.50;99.90;;;;;;5005222;28;20236;-95
2024/01/24 06:31:19;;;;;;;7.85;2.08;;;28.50;99.90;;;;;;4998166;28;20230;-94
2024/01/24 06:33:51;;;;;;;6.65;1.98;;;28.50;99.90;;;;;;4995053;28;20301;-96
2024/01/24 06:36:28;;;;;;;8.63;2.38;;;28.50;99.90;;;;;;4997760;28;20221;-96
2024/01/24 06:39:06;;;;;;;7.80;2.33;;;28.60;99.90;;;;;;5016988;28;20201;-95
2024/01/24 06:41:38;;;;;;;8.82;2.10;;;28.60;99.90;;;;;;5014655;28;20206;-95
2024/01/24 06:44:12;;;;;;;9.25;2.20;;;28.70;99.90;;;;;;5016327;28;20888;-96
2024/01/24 06:46:45;;;;;;;8.57;2.10;;;28.80;99.90;;;;;;5016122;28;20316;-95
2024/01/24 06:49:30;;;;;;;8.60;2.33;;;28.80;99.90;;;;;;5002412;28;20695;-95
2024/01/24 06:52:08;;;;;;;7.88;2.22;;;28.80;99.90;;;;;;4998869;28;20209;-95
2024/01/24 06:54:43;;;;;;;9.88;2.53;;;28.80;99.90;;;;;;5008343;28;20210;-95
2024/01/24 06:57:14;;;;;;;8.18;2.13;;;28.80;99.90;;;;;;5019821;28;20205;-95
2024/01/24 06:59:46;;;;;;;8.07;2.20;;;28.80;99.90;;;;;;5029495;28;20206;-95
2024/01/24 07:02:17;;;;;;;9.73;2.22;;;28.70;99.90;;;;;;5015275;28;20228;-96
2024/01/24 07:04:57;;;;;;;9.13;2.50;;;28.70;99.90;;;;;;4996079;28;20230;-93
2024/01/24 07:07:34;;;;;;;10.02;2.42;;;28.70;99.90;;;;;;4992814;28;20658;-95
2024/01/24 07:10:10;;;;;;;8.57;2.60;;;28.60;99.90;;;;;;4998014;28;20247;-96
2024/01/24 07:16:24;;;;;;;12.23;2.60;;;28.60;99.90;;;;;;4931770;29;20236;-96
2024/01/24 07:18:55;;;;;;;11.02;2.70;;;28.70;99.90;;;;;;4997064;28;20313;-96
2024/01/24 07:21:26;;;;;;;10.10;3.08;;;28.70;99.90;;;;;;5002205;28;20223;-96
2024/01/24 07:24:01;;;;;;;11.25;2.83;;;28.80;99.90;;;;;;5013420;28;20201;-96
2024/01/24 07:26:34;;;;;;;10.20;3.13;;;28.90;99.90;;;;;;5030021;27;20205;-95
2024/01/24 07:29:05;;;;;;;10.82;3.15;;;29.00;99.90;;;;;;5032461;28;20233;-96
2024/01/24 07:31:46;;;;;;;11.50;3.72;;;29.10;99.90;;;;;;5032092;28;20209;-96
2024/01/24 07:34:17;;;;;;;8.95;3.20;;;29.20;99.90;;;;;;5008778;28;20207;-96
2024/01/24 07:36:54;;;;;;;10.32;2.83;;;29.30;99.90;;;;;;4998883;28;20228;-96
2024/01/24 07:39:32;;;;;;;13.65;3.38;;;29.50;99.90;;;;;;5005110;28;20265;-95
2024/01/24 07:42:03;;;;;;;9.75;3.33;;;29.60;99.90;;;;;;4995857;28;20675;-96
2024/01/24 07:44:34;;;;;;;12.70;3.65;;;29.50;99.90;;;;;;4992762;28;20214;-96
2024/01/24 07:58:03;;;;;;;14.27;3.55;;;30.50;99.90;;;;;;5003108;28;20201;-96
2024/01/24 08:00:36;;;;;;;13.38;3.15;;;30.60;99.90;;;;;;5012271;28;20293;-95
2024/01/24 08:03:13;;;;;;;16.33;3.90;;;30.50;99.90;;;;;;5010043;28;20203;-95
2024/01/24 08:05:44;;;;;;;16.70;3.80;;;30.80;99.90;;;;;;5002088;28;20204;-95
2024/01/24 08:08:15;;;;;;;12.15;3.20;;;30.90;99.90;;;;;;5011633;28;20213;-95
2024/01/24 08:10:49;;;;;;;11.60;3.40;;;31.00;99.90;;;;;;5003986;28;20246;-96
2024/01/24 08:13:26;;;;;;;12.25;3.35;;;30.90;99.90;;;;;;4998167;28;20209;-96
2024/01/24 08:16:01;;;;;;;15.07;3.58;;;30.60;99.90;;;;;;5009798;28;20240;-96
2024/01/24 08:18:33;;;;;;;16.42;3.90;;;30.30;99.90;;;;;;5015712;28;20715;-96
2024/01/24 08:21:06;;;;;;;13.27;3.10;;;30.00;99.90;;;;;;4998169;28;20207;-96
2024/01/24 08:23:37;;;;;;;13.00;3.40;;;29.60;99.90;;;;;;5002417;28;20226;-95
2024/01/24 08:26:08;;;;;;;12.52;3.40;;;29.20;99.90;;;;;;5007511;28;20262;-96
2024/01/24 08:28:46;;;;;;;13.60;3.20;;;28.90;99.90;;;;;;5011071;28;20244;-95
2024/01/24 08:31:17;;;;;;;11.63;3.10;;;28.70;99.90;;;;;;5005327;28;20205;-95
2024/01/24 08:33:53;;;;;;;11.38;3.20;;;28.40;99.90;;;;;;5014186;28;20206;-96
2024/01/24 08:36:24;;;;;;;10.82;3.05;;;28.20;99.90;;;;;;5004520;28;20675;-96
2024/01/24 08:38:56;;;;;;;11.00;3.10;;;28.10;99.90;;;;;;4996824;28;20229;-96
2024/01/24 08:41:27;;;;;;;12.82;3.53;;;28.00;99.90;;;;;;5007454;28;20285;-95
2024/01/24 08:44:02;;;;;;;11.23;2.90;;;27.80;99.90;;;;;;5006750;28;20191;-96
2024/01/24 08:46:33;;;;;;;13.13;3.10;;;27.80;99.90;;;;;;4993875;28;20269;-96
2024/01/24 08:49:12;;;;;;;11.85;2.97;;;27.60;99.90;;;;;;5079538;28;20244;-95
2024/01/24 08:51:47;;;;;;;13.85;3.50;;;27.60;99.90;;;;;;5124729;28;20219;-96
2024/01/24 08:54:19;;;;;;;12.65;3.45;;;27.50;99.90;;;;;;5139493;28;20194;-96
2024/01/24 08:56:55;;;;;;;15.43;3.70;;;27.40;99.90;;;;;;5125566;28;20206;-96
2024/01/24 08:59:31;;;;;;;11.43;3.10;;;27.40;99.90;;;;;;5123524;28;20216;-96
2024/01/24 09:02:04;;;;;;;14.15;3.22;;;27.30;99.90;;;;;;5135911;28;20201;-95
2024/01/24 09:04:40;;;;;;;10.45;3.00;;;27.20;99.90;;;;;;5129441;28;20785;-95
2024/01/24 09:07:15;;;;;;;10.82;3.05;;;27.20;99.90;;;;;;5132294;28;20205;-95
2024/01/24 09:10:20;;;;;;;15.00;3.13;;;27.10;99.90;;;;;;5134616;28;20217;-96
2024/01/24 09:12:51;;;;;;;12.98;3.22;;;27.10;99.90;;;;;;5132522;28;20205;-96
2024/01/24 09:15:31;;;;;;;13.38;2.90;;;27.10;99.90;;;;;;5132753;28;20209;-96
2024/01/24 09:18:06;;;;;;;12.82;3.10;;;27.10;99.90;;;;;;5115007;28;20241;-96
2024/01/24 09:20:38;;;;;;;16.35;3.28;;;27.10;99.90;;;;;;5129676;28;20194;-96
2024/01/24 09:23:09;;;;;;;13.48;3.20;;;27.10;99.90;;;;;;5115731;28;20198;-95
2024/01/24 09:25:40;;;;;;;11.18;3.05;;;27.20;99.90;;;;;;5114600;28;20195;-96
2024/01/24 09:28:11;;;;;;;9.88;2.83;;;27.20;99.90;;;;;;5130980;28;20206;-96
2024/01/24 09:30:46;;;;;;;10.25;3.20;;;27.10;99.90;;;;;;5118544;28;20279;-96
2024/01/24 09:33:17;;;;;;;12.63;3.10;;;27.10;99.90;;;;;;5114884;28;20209;-95
2024/01/24 09:35:49;;;;;;;11.98;2.90;;;27.10;99.90;;;;;;5124630;28;20217;-96
2024/01/24 09:38:21;;;;;;;13.82;3.10;;;27.10;99.90;;;;;;5115924;28;20649;-96
2024/01/24 09:44:33;;;;;;;11.68;3.05;;;27.00;99.90;;;;;;5027799;28;20212;-96
2024/01/24 09:47:07;;;;;;;13.25;3.17;;;26.90;99.90;;;;;;5131178;27;20212;-96
2024/01/24 09:49:44;;;;;;;9.75;2.58;;;27.00;99.90;;;;;;5137213;27;20703;-96
2024/01/24 09:52:17;;;;;;;13.70;3.08;;;27.00;99.90;;;;;;5126404;27;20202;-96
2024/01/24 09:54:49;;;;;;;9.70;3.10;;;27.00;99.90;;;;;;5121212;28;20218;-94
2024/01/24 09:57:20;;;;;;;14.15;3.15;;;26.90;99.90;;;;;;5124934;27;20194;-94
2024/01/24 09:59:54;;;;;;;11.85;2.42;;;27.00;99.90;;;;;;5120996;28;20285;-94
2024/01/24 10:02:28;;;;;;;12.65;2.67;;;26.90;99.90;;;;;;5124502;28;20202;-95
2024/01/24 10:05:01;;;;;;;12.85;3.20;;;26.90;99.90;;;;;;5135750;27;20216;-95
2024/01/24 10:07:33;;;;;;;11.60;3.00;;;26.90;99.90;;;;;;5123006;28;20648;-95
2024/01/24 10:16:31;;;;;;;12.00;2.72;;;26.90;99.90;;;;;;5118989;28;20193;-95
2024/01/24 10:19:07;;;;;;;11.77;2.80;;;26.90;99.90;;;;;;5119479;28;20243;-93
2024/01/24 10:21:38;;;;;;;10.50;2.63;;;27.00;99.90;;;;;;5117195;28;20202;-94
2024/01/24 10:24:13;;;;;;;8.43;2.70;;;27.00;99.90;;;;;;5118180;28;20214;-96
2024/01/24 10:26:46;;;;;;;13.35;2.95;;;27.00;99.90;;;;;;5121308;28;20206;-93
2024/01/24 10:29:19;;;;;;;13.82;3.10;;;27.00;99.90;;;;;;5120973;27;20297;-91
2024/01/24 10:31:58;;;;;;;11.57;2.90;;;27.00;99.90;;;;;;5117208;28;20202;-93
2024/01/24 10:34:35;;;;;;;12.13;2.88;;;27.00;99.90;;;;;;5119589;28;20202;-93
2024/01/24 10:37:29;;;;;;;9.23;2.45;;;26.90;99.90;;;;;;5131494;27;20221;-93
2024/01/24 10:40:11;;;;;;;11.10;2.65;;;26.90;99.90;;;;;;5134430;27;20187;-93
2024/01/24 10:42:45;;;;;;;13.43;2.95;;;26.90;99.90;;;;;;5118998;28;20479;-95
2024/01/24 10:45:19;;;;;;;11.73;3.20;;;26.90;99.90;;;;;;5120957;28;20214;-94
2024/01/24 10:51:08;;;;;;;9.57;2.88;;;26.90;99.90;;;;;;5042581;23;20669;-78
2024/01/24 10:53:58;;;;;;;15.63;3.13;;;26.90;99.90;;;;;;5028526;28;20205;-80
2024/01/24 10:56:31;;;;;;;10.77;2.80;;;26.90;99.90;;;;;;5094237;27;20544;-78
2024/01/24 10:59:05;;;;;;;9.15;2.50;;;26.90;99.90;;;;;;5133458;27;20549;-79
2024/01/24 11:01:38;;;;;;;11.35;3.08;;;26.90;99.90;;;;;;5113032;28;20570;-79
2024/01/24 11:04:13;;;;;;;12.88;3.00;;;27.00;99.90;;;;;;5115678;27;20290;-79
2024/01/24 11:06:51;;;;;;;11.52;2.80;;;26.90;99.90;;;;;;5112372;27;20194;-79
2024/01/24 11:09:29;;;;;;;7.43;2.90;;;26.90;99.90;;;;;;5112212;27;20190;-80
2024/01/24 11:12:01;;;;;;;13.65;3.22;;;26.90;99.90;;;;;;5112867;28;20232;-78
2024/01/24 11:14:38;;;;;;;10.63;2.75;;;26.90;99.90;;;;;;5112508;27;20603;-79
2024/01/24 11:17:09;;;;;;;11.82;2.92;;;26.90;99.90;;;;;;5112539;28;20212;-79
2024/01/24 11:19:40;;;;;;;10.95;3.00;;;26.90;99.90;;;;;;5122989;27;20198;-79
2024/01/24 11:22:25;;;;;;;10.35;3.03;;;26.90;99.90;;;;;;5117694;27;20282;-79
2024/01/24 11:24:59;;;;;;;11.40;3.20;;;26.90;99.90;;;;;;5111676;28;20273;-78
2024/01/24 11:27:37;;;;;;;11.85;2.80;;;26.90;99.90;;;;;;5113032;27;20199;-79
2024/01/24 11:30:39;;;;;;;12.13;2.97;;;26.80;99.90;;;;;;5113214;27;20342;-78
2024/01/24 11:33:18;;;;;;;13.40;2.80;;;26.80;99.90;;;;;;5133276;27;20668;-78
2024/01/24 11:35:55;;;;;;;13.60;3.08;;;26.90;99.90;;;;;;5133162;27;20190;-79
2024/01/24 11:38:41;;;;;;;12.65;2.90;;;26.90;99.90;;;;;;5123942;27;20223;-79
2024/01/24 11:41:29;;;;;;;10.70;2.90;;;26.90;99.90;;;;;;5117532;27;20203;-79
2024/01/24 11:44:00;;;;;;;15.45;3.28;;;26.90;99.90;;;;;;5118602;27;20325;-80
2024/01/24 11:46:32;;;;;;;13.55;3.17;;;26.90;99.90;;;;;;5154064;27;20250;-79
2024/01/24 11:49:09;;;;;;;12.02;3.28;;;26.80;99.90;;;;;;5153555;27;20193;-80
2024/01/24 11:51:40;;;;;;;10.45;3.10;;;26.80;99.90;;;;;;5137079;27;20239;-79
2024/01/24 11:54:13;;;;;;;13.75;3.30;;;26.80;99.90;;;;;;5128962;27;20208;-80
2024/01/24 11:56:43;;;;;;;11.95;2.85;;;26.80;99.90;;;;;;5126902;27;20728;-80
2024/01/24 11:59:14;;;;;;;15.27;3.45;;;26.80;99.90;;;;;;5111122;28;20242;-80
2024/01/24 12:01:45;;;;;;;10.73;3.00;;;26.80;99.90;;;;;;5115922;28;20285;-80
2024/01/24 12:04:16;;;;;;;11.80;3.38;;;26.80;99.90;;;;;;5127693;27;20210;-80
2024/01/24 12:06:51;;;;;;;13.05;3.30;;;26.80;99.90;;;;;;5121374;27;20679;-79
2024/01/24 12:09:27;;;;;;;11.05;3.00;;;26.80;99.90;;;;;;5130184;27;20535;-79
2024/01/24 12:11:58;;;;;;;11.70;2.83;;;26.80;99.90;;;;;;5125755;27;20221;-79
2024/01/24 12:14:32;;;;;;;16.35;3.28;;;26.90;99.90;;;;;;5113914;27;20665;-80
2024/01/24 12:17:06;;;;;;;13.10;3.38;;;26.90;99.90;;;;;;5118876;27;20621;-80
2024/01/24 12:19:39;;;;;;;12.00;2.97;;;26.90;99.90;;;;;;5132182;27;20186;-78
2024/01/24 12:22:15;;;;;;;12.95;2.72;;;26.80;99.90;;;;;;5119915;27;20267;-78
2024/01/24 12:24:48;;;;;;;11.32;2.60;;;26.80;99.90;;;;;;5111868;28;20251;-79
2024/01/24 12:27:19;;;;;;;13.70;3.20;;;26.90;99.90;;;;;;5111831;28;20191;-79
2024/01/24 12:29:54;;;;;;;10.63;2.85;;;26.80;99.90;;;;;;5126859;27;20292;-79
2024/01/24 12:32:25;;;;;;;12.80;3.10;;;26.90;99.90;;;;;;5124128;27;20220;-79
2024/01/24 12:34:57;;;;;;;11.10;2.80;;;26.90;99.90;;;;;;5122055;27;20201;-78
2024/01/24 12:37:28;;;;;;;13.43;3.38;;;26.90;99.90;;;;;;5110862;28;20285;-78
2024/01/24 12:40:05;;;;;;;12.13;2.75;;;26.90;99.90;;;;;;5111200;28;20205;-79
2024/01/24 12:42:36;;;;;;;12.23;2.83;;;26.90;99.90;;;;;;5111785;28;20194;-80
2024/01/24 12:45:11;;;;;;;11.98;2.35;;;26.90;99.90;;;;;;5114030;28;20673;-80
2024/01/24 12:47:42;;;;;;;13.07;2.88;;;26.90;99.90;;;;;;5126054;28;20197;-80
2024/01/24 12:50:13;;;;;;;13.75;3.10;;;26.90;99.90;;;;;;5133166;27;20233;-79
2024/01/24 12:52:44;;;;;;;9.80;2.67;;;26.90;99.90;;;;;;5111265;28;20472;-79
2024/01/24 12:55:17;;;;;;;13.90;3.00;;;26.90;99.90;;;;;;5111421;28;20668;-79
2024/01/24 12:57:48;;;;;;;10.38;2.90;;;26.90;99.90;;;;;;5111133;28;20589;-79
2024/01/24 13:00:19;;;;;;;12.43;2.50;;;26.90;99.90;;;;;;5110351;28;20191;-79
2024/01/24 13:02:50;;;;;;;9.85;2.63;;;26.90;99.90;;;;;;5113027;28;20194;-80
2024/01/24 13:05:22;;;;;;;10.93;2.40;;;26.90;99.90;;;;;;5112024;28;20274;-79
2024/01/24 13:07:53;;;;;;;8.90;2.65;;;27.00;99.90;;;;;;5128936;27;20228;-78
2024/01/24 13:10:27;;;;;;;12.10;2.88;;;27.00;99.90;;;;;;5122550;28;20202;-79
2024/01/24 13:12:57;;;;;;;14.63;3.03;;;27.00;99.90;;;;;;5111158;28;20250;-80
2024/01/24 13:15:32;;;;;;;12.57;2.80;;;27.00;99.90;;;;;;5111429;28;20201;-79
2024/01/24 13:18:03;;;;;;;15.13;2.97;;;27.00;99.90;;;;;;5118884;28;20195;-80
2024/01/24 13:20:34;;;;;;;7.78;2.70;;;27.00;99.90;;;;;;5117764;27;20195;-79
2024/01/24 13:23:05;;;;;;;11.10;3.00;;;27.00;99.90;;;;;;5114910;28;20647;-80
2024/01/24 13:25:37;;;;;;;12.75;2.78;;;27.10;99.90;;;;;;5126325;27;20737;-79
2024/01/24 13:28:08;;;;;;;8.40;2.45;;;27.00;99.90;;;;;;5135390;27;20200;-79
2024/01/24 13:30:39;;;;;;;15.48;3.00;;;27.00;99.90;;;;;;5131503;27;20194;-79
2024/01/24 13:33:10;;;;;;;10.63;2.75;;;27.00;99.90;;;;;;5135040;27;20691;-79
2024/01/24 13:35:43;;;;;;;12.23;2.92;;;27.00;99.90;;;;;;5123093;27;20247;-79
2024/01/24 13:38:14;;;;;;;13.80;3.08;;;27.00;99.90;;;;;;5126236;27;20194;-79
2024/01/24 13:40:47;;;;;;;11.40;2.85;;;27.00;99.90;;;;;;5115107;28;20285;-79
2024/01/24 13:43:18;;;;;;;11.13;2.55;;;27.00;99.90;;;;;;5115101;27;20270;-79
2024/01/24 13:45:48;;;;;;;11.93;2.70;;;27.00;99.90;;;;;;5117904;27;20570;-79
2024/01/24 13:48:19;;;;;;;14.20;3.28;;;27.00;99.90;;;;;;5125333;27;20544;-79
2024/01/24 13:50:50;;;;;;;10.52;2.80;;;27.00;99.90;;;;;;5122985;27;20229;-79
2024/01/24 13:53:21;;;;;;;14.88;3.40;;;27.00;99.90;;;;;;5145876;27;20285;-79
2024/01/24 13:55:54;;;;;;;9.85;2.92;;;26.90;99.90;;;;;;5131188;27;20222;-79
2024/01/24 13:58:25;;;;;;;12.95;3.15;;;27.00;99.90;;;;;;5127649;27;20216;-79
2024/01/24 14:00:55;;;;;;;13.13;2.78;;;26.90;99.90;;;;;;5114973;27;20198;-78
2024/01/24 14:03:26;;;;;;;11.60;3.38;;;26.90;99.90;;;;;;5123160;27;20204;-77
2024/01/24 14:05:57;;;;;;;11.40;2.90;;;26.90;99.90;;;;;;5134228;27;20197;-78